Time;durP1;ratioP1;P1;durP2;ratioP2;P2;SDS_P1;SDS_P2;PMS_P1;PMS_P2;Temp;Humidity;BMP_temperature;BMP_pressure;BME280_temperature;BME280_humidity;BME280_pressure;Samples;Min_cycle;Max_cycle;Signal;HPM_P1;HPM_P2
2022/01/22 00:02:09;;;;;;;8.73;5.20;;;2.90;64.70;;;;;;5076736;28;20203;-76
2022/01/22 00:04:37;;;;;;;10.23;5.30;;;2.90;64.70;;;;;;5082540;28;20354;-76
2022/01/22 00:07:06;;;;;;;11.47;4.53;;;2.90;64.70;;;;;;5080344;28;20196;-76
2022/01/22 00:09:52;;;;;;;13.07;5.50;;;2.90;64.60;;;;;;5077854;28;20286;-75
2022/01/22 00:12:55;;;;;;;8.87;4.70;;;2.90;64.60;;;;;;5082635;28;20202;-76
2022/01/22 00:15:25;;;;;;;8.53;4.37;;;2.90;64.70;;;;;;5074637;28;20208;-75
2022/01/22 00:17:54;;;;;;;11.90;5.17;;;2.90;64.50;;;;;;5082574;28;20200;-76
2022/01/22 00:20:25;;;;;;;8.97;4.20;;;2.90;64.60;;;;;;5081981;28;20205;-76
2022/01/22 00:22:53;;;;;;;9.07;4.33;;;2.90;64.50;;;;;;5081524;28;20205;-76
2022/01/22 00:25:24;;;;;;;7.30;4.27;;;2.90;64.50;;;;;;5079037;28;20197;-75
2022/01/22 00:27:52;;;;;;;8.73;4.23;;;2.90;64.50;;;;;;5081535;28;20935;-76
2022/01/22 00:30:23;;;;;;;11.00;4.70;;;2.90;64.40;;;;;;5078614;28;20194;-76
2022/01/22 00:32:53;;;;;;;7.87;4.33;;;2.90;64.40;;;;;;5078762;28;21937;-75
2022/01/22 00:35:23;;;;;;;8.10;4.30;;;2.90;64.40;;;;;;5079475;28;20221;-75
2022/01/22 00:37:54;;;;;;;7.93;4.30;;;2.90;64.40;;;;;;5079475;28;20584;-75
2022/01/22 00:40:23;;;;;;;9.80;5.10;;;2.90;64.40;;;;;;5079052;28;20187;-75
2022/01/22 00:42:52;;;;;;;8.30;4.53;;;2.90;64.40;;;;;;5079523;28;20197;-76
2022/01/22 00:45:21;;;;;;;14.67;4.80;;;2.80;64.30;;;;;;5080924;28;20620;-75
2022/01/22 00:47:50;;;;;;;10.23;4.30;;;2.90;64.40;;;;;;5080465;28;20192;-75
2022/01/22 00:50:21;;;;;;;10.67;4.33;;;2.80;64.30;;;;;;5082460;28;20927;-75
2022/01/22 00:52:50;;;;;;;9.83;4.40;;;2.80;64.50;;;;;;5078470;28;20255;-75
2022/01/22 00:55:19;;;;;;;10.57;4.50;;;2.80;64.90;;;;;;5081766;28;20250;-75
2022/01/22 00:57:49;;;;;;;8.40;3.90;;;2.80;64.40;;;;;;5081811;28;20197;-76
2022/01/22 01:00:18;;;;;;;8.57;4.27;;;2.80;64.30;;;;;;5081916;28;20721;-75
2022/01/22 01:02:47;;;;;;;8.27;4.07;;;2.80;64.30;;;;;;5080720;28;20192;-75
2022/01/22 01:05:16;;;;;;;10.03;4.43;;;2.80;64.30;;;;;;5082697;28;20584;-75
2022/01/22 01:07:44;;;;;;;9.13;4.33;;;2.80;64.20;;;;;;5081145;28;20189;-75
2022/01/22 01:10:15;;;;;;;11.47;4.07;;;2.80;64.00;;;;;;5082712;28;20208;-75
2022/01/22 01:12:43;;;;;;;7.73;4.37;;;2.80;63.80;;;;;;5076720;28;20210;-75
2022/01/22 01:15:24;;;;;;;8.90;3.93;;;2.80;63.70;;;;;;5082812;28;20216;-76
2022/01/22 01:32:09;;;;;;;8.13;3.90;;;2.70;63.60;;;;;;5080955;28;20180;-75
2022/01/22 01:32:13;;;;;;;7.73;3.90;;;2.70;63.30;;;;;;5078652;28;20191;-75
2022/01/22 01:34:43;;;;;;;9.70;4.30;;;2.60;63.30;;;;;;5077786;28;21276;-75
2022/01/22 01:37:15;;;;;;;8.60;4.00;;;2.60;63.30;;;;;;5083151;28;20865;-75
2022/01/22 01:39:47;;;;;;;8.87;4.13;;;2.60;63.40;;;;;;5077941;28;20193;-75
2022/01/22 01:42:19;;;;;;;11.20;3.87;;;2.50;63.40;;;;;;5080618;28;20186;-75
2022/01/22 01:44:47;;;;;;;7.47;4.03;;;2.50;63.50;;;;;;5082973;28;20193;-75
2022/01/22 01:47:19;;;;;;;6.60;3.90;;;2.40;63.60;;;;;;5076406;28;20201;-75
2022/01/22 01:49:47;;;;;;;8.33;4.10;;;2.40;63.60;;;;;;5077170;28;20189;-76
2022/01/22 01:52:22;;;;;;;9.53;4.53;;;2.40;63.70;;;;;;5080483;28;20180;-75
2022/01/22 01:55:02;;;;;;;7.33;3.70;;;2.30;63.70;;;;;;5077790;28;20200;-75
2022/01/22 01:57:39;;;;;;;10.43;4.47;;;2.30;63.80;;;;;;5075463;28;20204;-75
2022/01/22 02:00:15;;;;;;;8.40;3.90;;;2.30;64.00;;;;;;5070090;28;20212;-74
2022/01/22 02:02:47;;;;;;;10.43;4.43;;;2.20;63.90;;;;;;5079470;28;20197;-75
2022/01/22 02:05:15;;;;;;;9.67;4.30;;;2.20;64.10;;;;;;5078487;28;20188;-77
2022/01/22 02:07:45;;;;;;;6.70;4.23;;;2.10;64.20;;;;;;5079786;28;20203;-75
2022/01/22 02:10:19;;;;;;;7.63;3.80;;;2.10;64.30;;;;;;5082350;28;20188;-75
2022/01/22 02:23:58;;;;;;;8.43;4.30;;;1.90;64.80;;;;;;5078215;28;20958;-75
2022/01/22 02:26:28;;;;;;;11.33;4.30;;;1.80;64.80;;;;;;5075442;28;20191;-75
2022/01/22 02:28:56;;;;;;;8.27;4.90;;;1.80;65.20;;;;;;5078066;28;20195;-75
2022/01/22 02:31:31;;;;;;;13.00;4.33;;;1.80;65.20;;;;;;5078482;28;20190;-75
2022/01/22 02:34:09;;;;;;;7.57;4.00;;;1.80;65.30;;;;;;5077506;28;20230;-75
2022/01/22 02:36:43;;;;;;;6.93;3.53;;;1.70;65.50;;;;;;5071666;28;20219;-75
2022/01/22 02:39:15;;;;;;;7.63;3.93;;;1.70;65.40;;;;;;5080230;28;20186;-75
2022/01/22 02:41:46;;;;;;;9.27;3.97;;;1.70;65.40;;;;;;5080326;28;20549;-75
2022/01/22 02:44:26;;;;;;;6.77;3.80;;;1.70;65.70;;;;;;5072686;28;20195;-75
2022/01/22 02:46:54;;;;;;;8.82;5.25;;;1.60;65.70;;;;;;5075065;28;20948;-76
2022/01/22 02:49:23;;;;;;;8.63;4.73;;;1.60;66.00;;;;;;5075651;28;20201;-75
2022/01/22 02:51:52;;;;;;;9.33;4.70;;;1.60;66.10;;;;;;5075605;28;20201;-75
2022/01/22 02:54:21;;;;;;;10.07;4.27;;;1.60;66.00;;;;;;5081285;28;20637;-75
2022/01/22 02:56:49;;;;;;;10.67;4.73;;;1.60;66.10;;;;;;5080727;28;20212;-75
2022/01/22 02:59:21;;;;;;;8.30;4.00;;;1.60;66.00;;;;;;5072931;28;20200;-75
2022/01/22 03:01:50;;;;;;;7.23;4.43;;;1.60;66.00;;;;;;5077212;28;20196;-75
2022/01/22 03:04:18;;;;;;;8.03;3.97;;;1.50;65.90;;;;;;5080629;28;20207;-75
2022/01/22 03:06:48;;;;;;;10.03;4.73;;;1.50;66.00;;;;;;5079224;28;20208;-76
2022/01/22 03:09:26;;;;;;;9.47;4.33;;;1.50;65.90;;;;;;5080153;28;20198;-75
2022/01/22 03:12:16;;;;;;;9.13;4.20;;;1.50;66.00;;;;;;5075503;28;20191;-75
2022/01/22 03:17:36;;;;;;;9.87;4.70;;;1.50;65.90;;;;;;5050894;28;20571;-75
2022/01/22 03:20:19;;;;;;;5.30;3.27;;;1.50;65.90;;;;;;5074820;28;20553;-75
2022/01/22 03:23:06;;;;;;;10.17;4.60;;;1.50;65.80;;;;;;5073500;28;20192;-75
2022/01/22 03:28:26;;;;;;;7.57;4.03;;;1.50;65.80;;;;;;5078834;28;20188;-76
2022/01/22 03:30:54;;;;;;;10.83;5.63;;;1.50;65.80;;;;;;5078201;28;20213;-76
2022/01/22 03:33:24;;;;;;;9.03;4.23;;;1.50;65.70;;;;;;5079028;28;20225;-76
2022/01/22 03:35:56;;;;;;;11.17;4.13;;;1.50;65.70;;;;;;5078825;28;20218;-75
2022/01/22 03:38:25;;;;;;;10.03;4.60;;;1.50;65.70;;;;;;5074112;28;20200;-76
2022/01/22 03:40:55;;;;;;;8.90;3.70;;;1.50;65.60;;;;;;5075604;28;20241;-75
2022/01/22 03:43:23;;;;;;;10.23;4.83;;;1.50;65.60;;;;;;5076508;28;20732;-76
2022/01/22 03:45:52;;;;;;;10.23;4.47;;;1.50;65.50;;;;;;5076692;28;20216;-76
2022/01/22 03:48:20;;;;;;;8.27;4.40;;;1.50;65.40;;;;;;5073992;28;20202;-76
2022/01/22 03:50:49;;;;;;;7.73;4.00;;;1.50;65.20;;;;;;5083661;28;20204;-76
2022/01/22 03:53:18;;;;;;;10.23;6.00;;;1.50;65.10;;;;;;5074848;28;20724;-75
2022/01/22 03:55:54;;;;;;;9.37;4.17;;;1.40;64.70;;;;;;5084094;28;20190;-76
2022/01/22 03:58:24;;;;;;;6.93;3.73;;;1.40;64.50;;;;;;5079035;28;20194;-76
2022/01/22 04:01:07;;;;;;;9.33;4.20;;;1.40;64.50;;;;;;5081735;28;20196;-75
2022/01/22 04:03:40;;;;;;;6.47;3.67;;;1.30;64.40;;;;;;5080919;28;20186;-76
2022/01/22 04:06:34;;;;;;;10.67;4.10;;;1.30;64.40;;;;;;5081773;28;20638;-76
2022/01/22 04:09:06;;;;;;;10.67;4.10;;;1.30;64.40;;;;;;5079948;28;20198;-75
2022/01/22 04:11:38;;;;;;;9.87;4.00;;;1.30;64.50;;;;;;5077654;28;20186;-75
2022/01/22 04:14:14;;;;;;;8.27;4.23;;;1.20;64.40;;;;;;5076075;28;20586;-75
2022/01/22 04:16:59;;;;;;;9.77;4.33;;;1.20;64.40;;;;;;5081853;28;20198;-76
2022/01/22 04:25:01;;;;;;;8.63;4.20;;;1.30;64.70;;;;;;5077699;28;20240;-76
2022/01/22 04:27:29;;;;;;;11.40;3.97;;;1.20;64.70;;;;;;5081610;28;20223;-76
2022/01/22 04:30:00;;;;;;;8.67;4.00;;;1.20;64.70;;;;;;5078631;28;20204;-76
2022/01/22 04:32:30;;;;;;;7.07;3.87;;;1.20;64.60;;;;;;5080126;28;20199;-76
2022/01/22 04:35:00;;;;;;;10.23;4.40;;;1.20;64.70;;;;;;5081094;28;20577;-76
2022/01/22 04:37:28;;;;;;;10.57;4.87;;;1.20;64.70;;;;;;5079289;28;20639;-76
2022/01/22 04:39:57;;;;;;;8.10;4.47;;;1.20;64.70;;;;;;5079902;28;20198;-76
2022/01/22 04:42:29;;;;;;;11.00;4.77;;;1.20;64.80;;;;;;5081549;28;20190;-76
2022/01/22 04:45:03;;;;;;;10.27;4.67;;;1.10;64.80;;;;;;5082804;28;20194;-77
2022/01/22 04:47:42;;;;;;;10.07;5.10;;;1.00;64.80;;;;;;5079567;28;20197;-76
2022/01/22 04:55:44;;;;;;;10.30;5.33;;;0.90;65.30;;;;;;5076687;28;20295;-76
2022/01/22 04:58:12;;;;;;;10.33;4.77;;;0.90;65.30;;;;;;5080530;28;20213;-76
2022/01/22 05:00:46;;;;;;;9.53;4.90;;;0.80;65.60;;;;;;5080267;28;20645;-76
2022/01/22 05:03:16;;;;;;;8.60;4.90;;;0.80;65.80;;;;;;5083241;28;20804;-76
2022/01/22 05:05:44;;;;;;;10.17;5.07;;;0.80;66.00;;;;;;5084749;28;20273;-75
2022/01/22 05:08:12;;;;;;;8.33;4.30;;;0.70;66.10;;;;;;5083737;28;20194;-76
2022/01/22 05:10:41;;;;;;;10.37;4.23;;;0.70;66.10;;;;;;5085356;28;20213;-77
2022/01/22 05:13:09;;;;;;;9.35;4.38;;;0.70;66.30;;;;;;5084242;28;20820;-76
2022/01/22 05:15:37;;;;;;;9.57;5.57;;;0.60;66.60;;;;;;5081128;28;20218;-77
2022/01/22 05:18:08;;;;;;;13.80;7.70;;;0.60;66.70;;;;;;5079874;28;20296;-76
2022/01/22 05:20:44;;;;;;;22.60;12.93;;;0.60;66.60;;;;;;5080484;28;20200;-76
2022/01/22 05:23:16;;;;;;;16.30;8.87;;;0.60;66.60;;;;;;5076330;28;20190;-76
2022/01/22 05:25:50;;;;;;;10.27;5.57;;;0.60;66.50;;;;;;5081555;28;20185;-76
2022/01/22 05:28:49;;;;;;;11.00;4.80;;;0.60;66.50;;;;;;5074016;28;20201;-76
2022/01/22 05:31:23;;;;;;;7.87;5.03;;;0.60;66.50;;;;;;5078138;28;20190;-76
2022/01/22 05:39:37;;;;;;;9.13;4.10;;;0.50;66.10;;;;;;4989363;28;20211;-75
2022/01/22 05:42:09;;;;;;;9.20;4.50;;;0.50;66.20;;;;;;5058381;28;20198;-76
2022/01/22 05:44:38;;;;;;;10.17;4.07;;;0.50;66.20;;;;;;5077811;28;20291;-77
2022/01/22 05:47:07;;;;;;;6.70;3.57;;;0.50;66.20;;;;;;5080596;28;20847;-76
2022/01/22 05:49:41;;;;;;;9.17;4.30;;;0.50;66.20;;;;;;5078324;28;20198;-77
2022/01/22 05:52:12;;;;;;;11.13;3.87;;;0.50;66.20;;;;;;5078751;28;20567;-77
2022/01/22 05:54:57;;;;;;;9.43;3.90;;;0.50;66.30;;;;;;5077669;28;20217;-76
2022/01/22 06:00:11;;;;;;;9.80;4.60;;;0.40;66.20;;;;;;5081461;28;20691;-76
2022/01/22 06:02:39;;;;;;;6.63;4.30;;;0.50;66.20;;;;;;5079927;28;20278;-76
2022/01/22 06:05:12;;;;;;;12.73;5.53;;;0.40;66.10;;;;;;5073844;28;20229;-76
2022/01/22 06:07:40;;;;;;;13.93;4.30;;;0.50;66.20;;;;;;5081169;28;20216;-76
2022/01/22 06:10:17;;;;;;;6.77;3.87;;;0.50;66.10;;;;;;5081498;28;20267;-76
2022/01/22 06:12:58;;;;;;;7.77;3.77;;;0.50;66.10;;;;;;5079056;28;20197;-76
2022/01/22 06:15:26;;;;;;;7.27;3.47;;;0.50;66.10;;;;;;5077516;28;20229;-76
2022/01/22 06:17:55;;;;;;;8.90;4.00;;;0.60;66.20;;;;;;5079486;28;20201;-76
2022/01/22 06:20:24;;;;;;;11.57;3.97;;;0.60;66.10;;;;;;5081905;28;20194;-76
2022/01/22 06:22:53;;;;;;;9.03;4.03;;;0.60;66.10;;;;;;5081026;28;20194;-77
2022/01/22 06:25:21;;;;;;;7.73;3.90;;;0.60;65.90;;;;;;5080115;28;20186;-76
2022/01/22 06:27:49;;;;;;;11.13;3.87;;;0.60;65.90;;;;;;5073452;28;20186;-77
2022/01/22 06:30:19;;;;;;;7.73;4.30;;;0.60;66.10;;;;;;5074586;28;20202;-77
2022/01/22 06:32:47;;;;;;;9.10;4.30;;;0.60;66.10;;;;;;5077267;28;20193;-77
2022/01/22 06:35:15;;;;;;;10.17;4.00;;;0.60;66.20;;;;;;5075400;28;20290;-78
2022/01/22 06:37:45;;;;;;;11.90;4.17;;;0.60;66.20;;;;;;5082313;28;20214;-77
2022/01/22 06:42:59;;;;;;;6.43;3.40;;;0.60;66.60;;;;;;5080520;28;20198;-77
2022/01/22 06:45:28;;;;;;;8.03;3.97;;;0.60;66.80;;;;;;5083029;28;20195;-77
2022/01/22 06:47:56;;;;;;;9.03;3.97;;;0.60;67.10;;;;;;5078745;28;20655;-77
2022/01/22 06:50:24;;;;;;;15.03;4.07;;;0.60;67.00;;;;;;5081772;28;20195;-76
2022/01/22 06:52:56;;;;;;;10.27;4.20;;;0.60;67.20;;;;;;5079908;28;20846;-77
2022/01/22 06:55:31;;;;;;;8.37;4.30;;;0.60;67.20;;;;;;5082296;28;20214;-77
2022/01/22 06:57:59;;;;;;;6.83;3.97;;;0.60;67.30;;;;;;5082035;28;20194;-76
2022/01/22 07:00:28;;;;;;;8.87;4.37;;;0.70;67.30;;;;;;5081801;28;20201;-77
2022/01/22 07:02:56;;;;;;;10.70;4.20;;;0.80;67.40;;;;;;5078297;28;20235;-76
2022/01/22 07:05:24;;;;;;;8.13;4.77;;;0.80;67.40;;;;;;5073129;28;20260;-77
2022/01/22 07:07:54;;;;;;;13.80;4.73;;;0.80;67.40;;;;;;5078710;28;20182;-76
2022/01/22 07:10:23;;;;;;;8.03;4.30;;;0.90;67.30;;;;;;5077636;28;20811;-77
2022/01/22 07:12:51;;;;;;;10.90;5.25;;;1.00;67.20;;;;;;5080262;28;20427;-76
2022/01/22 07:15:20;;;;;;;10.30;4.47;;;1.10;67.60;;;;;;5080060;28;20236;-76
2022/01/22 07:17:49;;;;;;;13.67;4.10;;;1.20;67.30;;;;;;5081522;28;20197;-76
2022/01/22 07:20:25;;;;;;;8.87;4.37;;;1.20;66.90;;;;;;5081415;28;20199;-76
2022/01/22 07:23:01;;;;;;;9.30;4.43;;;1.30;66.60;;;;;;5080322;28;20195;-76
2022/01/22 07:25:30;;;;;;;11.87;4.27;;;1.40;66.30;;;;;;5079409;28;20193;-76
2022/01/22 07:27:59;;;;;;;11.57;4.43;;;1.50;66.20;;;;;;5087196;28;20200;-77
2022/01/22 07:30:27;;;;;;;11.10;4.70;;;1.60;66.00;;;;;;5087113;28;20188;-76
2022/01/22 07:32:56;;;;;;;9.23;4.83;;;1.60;65.70;;;;;;5084381;28;20888;-76
2022/01/22 07:35:24;;;;;;;9.43;5.03;;;1.70;65.50;;;;;;5075873;28;20228;-77
2022/01/22 07:37:53;;;;;;;11.37;4.67;;;1.70;65.40;;;;;;5087465;28;20184;-77
2022/01/22 07:40:22;;;;;;;14.27;5.33;;;1.70;65.20;;;;;;5087048;28;20646;-76
2022/01/22 07:42:50;;;;;;;7.37;4.67;;;1.80;65.40;;;;;;5086582;28;20226;-77
2022/01/22 07:45:19;;;;;;;14.60;6.82;;;1.80;65.00;;;;;;5085293;28;20469;-77
2022/01/22 07:47:47;;;;;;;12.37;5.93;;;1.80;65.20;;;;;;5083241;28;20193;-76
2022/01/22 07:50:15;;;;;;;12.13;5.50;;;1.80;65.20;;;;;;5081528;28;20200;-77
2022/01/22 07:52:43;;;;;;;10.97;5.53;;;1.80;65.50;;;;;;5087830;28;20196;-76
2022/01/22 07:55:15;;;;;;;13.93;6.00;;;1.90;65.40;;;;;;5085755;28;20434;-76
2022/01/22 07:57:44;;;;;;;11.23;5.30;;;2.00;65.90;;;;;;5085032;28;20188;-76
2022/01/22 08:00:14;;;;;;;14.57;7.27;;;2.00;65.60;;;;;;5086617;28;20710;-76
2022/01/22 08:02:42;;;;;;;10.87;5.50;;;1.90;65.40;;;;;;5087170;28;20216;-76
2022/01/22 08:05:11;;;;;;;11.37;6.30;;;2.00;65.90;;;;;;5083978;28;20193;-74
2022/01/22 08:07:43;;;;;;;18.57;7.60;;;2.00;66.00;;;;;;5085670;28;20193;-76
2022/01/22 08:10:14;;;;;;;14.90;6.40;;;2.10;66.20;;;;;;5085116;28;20686;-75
2022/01/22 08:12:42;;;;;;;15.40;7.10;;;2.10;66.10;;;;;;5084177;28;20182;-75
2022/01/22 08:15:13;;;;;;;15.03;7.07;;;2.20;65.90;;;;;;5085014;28;20196;-76
2022/01/22 08:17:42;;;;;;;15.37;6.97;;;2.30;65.90;;;;;;5076429;28;20875;-76
2022/01/22 08:20:14;;;;;;;15.50;5.57;;;2.30;65.90;;;;;;5085263;28;20190;-74
2022/01/22 08:22:43;;;;;;;12.80;6.27;;;2.40;65.70;;;;;;5083499;28;20193;-75
2022/01/22 08:25:13;;;;;;;10.20;5.30;;;2.40;65.60;;;;;;5086086;28;20573;-75
2022/01/22 08:28:52;;;;;;;10.00;5.50;;;2.50;65.20;;;;;;5084816;28;20197;-77
2022/01/22 08:30:30;;;;;;;12.87;5.20;;;2.60;64.90;;;;;;5082403;28;20196;-76
2022/01/22 08:33:20;;;;;;;15.70;5.97;;;2.60;64.70;;;;;;5079782;28;20220;-76
2022/01/22 08:35:53;;;;;;;11.90;5.57;;;2.70;64.30;;;;;;5083193;28;20222;-76
2022/01/22 08:38:22;;;;;;;15.00;6.43;;;2.80;64.60;;;;;;5081355;28;20190;-77
2022/01/22 08:40:53;;;;;;;11.80;5.63;;;2.90;64.80;;;;;;5084740;28;20186;-76
2022/01/22 08:43:22;;;;;;;11.27;5.17;;;3.00;64.60;;;;;;5083860;28;20762;-76
2022/01/22 08:45:52;;;;;;;9.97;5.27;;;3.10;64.30;;;;;;5086254;28;20194;-77
2022/01/22 08:48:22;;;;;;;12.53;5.30;;;3.30;64.50;;;;;;5086262;28;20243;-75
2022/01/22 08:50:51;;;;;;;14.63;5.77;;;3.40;64.50;;;;;;5083960;28;20184;-75
2022/01/22 08:53:40;;;;;;;10.50;4.77;;;3.50;63.70;;;;;;5083361;28;20659;-74
2022/01/22 08:56:10;;;;;;;7.93;4.30;;;3.60;63.30;;;;;;5084289;28;20218;-75
2022/01/22 08:58:38;;;;;;;10.27;4.93;;;3.70;63.40;;;;;;5083691;28;20194;-75
2022/01/22 09:01:07;;;;;;;10.30;4.73;;;3.80;63.10;;;;;;5082050;28;20731;-74
2022/01/22 09:03:37;;;;;;;11.83;4.77;;;4.00;62.60;;;;;;5077356;28;20274;-75
2022/01/22 09:06:08;;;;;;;12.37;4.67;;;4.00;61.90;;;;;;5085916;28;20194;-74
2022/01/22 09:08:36;;;;;;;9.30;4.83;;;4.10;60.80;;;;;;5084709;28;20237;-74
2022/01/22 09:11:04;;;;;;;11.40;4.87;;;4.20;61.10;;;;;;5084845;28;20179;-74
2022/01/22 09:13:34;;;;;;;12.03;4.97;;;4.30;61.10;;;;;;5077046;28;20191;-73
2022/01/22 09:16:03;;;;;;;9.47;4.70;;;4.30;60.30;;;;;;5080317;28;20195;-74
2022/01/22 09:18:32;;;;;;;11.77;4.60;;;4.50;59.80;;;;;;5081531;28;20191;-74
2022/01/22 09:21:04;;;;;;;9.53;4.27;;;4.50;59.10;;;;;;5080989;28;20204;-73
2022/01/22 09:23:34;;;;;;;10.10;4.60;;;4.60;58.90;;;;;;5074545;28;20291;-73
2022/01/22 09:26:02;;;;;;;12.18;5.25;;;4.60;58.20;;;;;;5082170;28;20422;-74
2022/01/22 09:28:33;;;;;;;9.23;4.97;;;4.70;58.90;;;;;;5077033;28;20183;-74
2022/01/22 09:31:03;;;;;;;12.27;4.87;;;4.80;59.40;;;;;;5083358;28;20240;-74
2022/01/22 09:33:31;;;;;;;10.57;5.33;;;4.80;58.20;;;;;;5081279;28;20208;-75
2022/01/22 09:35:59;;;;;;;8.27;4.27;;;4.90;57.80;;;;;;5079730;28;20232;-74
2022/01/22 09:38:28;;;;;;;9.73;5.43;;;5.00;58.00;;;;;;5083268;28;20434;-74
2022/01/22 09:40:56;;;;;;;11.37;5.23;;;5.00;57.80;;;;;;5075761;28;20195;-74
2022/01/22 09:43:25;;;;;;;6.90;3.83;;;5.10;57.50;;;;;;5080661;28;20195;-73
2022/01/22 09:45:53;;;;;;;8.53;4.27;;;5.20;57.60;;;;;;5083019;28;20937;-74
2022/01/22 09:48:23;;;;;;;7.07;3.60;;;5.20;57.40;;;;;;5074417;28;20647;-74
2022/01/22 09:50:51;;;;;;;9.00;4.43;;;5.30;57.80;;;;;;5072305;28;20204;-75
2022/01/22 09:53:20;;;;;;;7.17;3.60;;;5.40;56.80;;;;;;5077801;28;20189;-75
2022/01/22 09:55:48;;;;;;;15.00;4.47;;;5.50;57.40;;;;;;5072464;28;20221;-74
2022/01/22 09:58:17;;;;;;;6.00;3.70;;;5.60;57.10;;;;;;5071633;28;20219;-76
2022/01/22 10:00:45;;;;;;;9.37;2.80;;;5.70;57.20;;;;;;5072479;28;20193;-74
2022/01/22 10:03:19;;;;;;;9.27;3.60;;;5.80;56.40;;;;;;5077449;28;20188;-75
2022/01/22 10:05:49;;;;;;;9.47;3.70;;;5.90;56.10;;;;;;5081628;28;20177;-75
2022/01/22 10:08:28;;;;;;;6.63;3.13;;;5.90;56.10;;;;;;5082266;28;20207;-75
2022/01/22 10:10:59;;;;;;;7.67;3.30;;;6.00;55.80;;;;;;5071618;28;20200;-75
2022/01/22 10:13:42;;;;;;;7.38;3.83;;;6.10;55.20;;;;;;5073809;28;20442;-76
2022/01/22 10:16:19;;;;;;;10.00;3.73;;;6.20;54.30;;;;;;5076032;28;20227;-75
2022/01/22 10:19:07;;;;;;;5.70;3.57;;;6.30;53.50;;;;;;5081122;28;20188;-75
2022/01/22 10:21:38;;;;;;;7.90;3.47;;;6.30;53.40;;;;;;5075006;28;20243;-74
2022/01/22 10:24:25;;;;;;;5.40;3.20;;;6.40;52.50;;;;;;5078852;28;20197;-76
2022/01/22 10:27:18;;;;;;;7.87;3.23;;;6.50;52.00;;;;;;5079490;28;20274;-75
2022/01/22 10:29:51;;;;;;;8.37;3.07;;;6.60;52.20;;;;;;5078246;28;20179;-75
2022/01/22 10:32:23;;;;;;;7.40;3.40;;;6.60;51.20;;;;;;5080184;28;20640;-75
2022/01/22 10:35:08;;;;;;;6.73;2.80;;;6.70;51.10;;;;;;5075834;28;20190;-75
2022/01/22 10:37:39;;;;;;;3.83;1.80;;;6.70;49.30;;;;;;5078418;28;20320;-74
2022/01/22 10:40:27;;;;;;;4.67;1.97;;;6.80;49.20;;;;;;5079699;28;20197;-75
2022/01/22 10:43:11;;;;;;;4.00;2.40;;;6.80;47.60;;;;;;5065110;28;20200;-75
2022/01/22 10:45:41;;;;;;;5.03;2.20;;;6.90;48.40;;;;;;5081436;28;20180;-75
2022/01/22 10:48:21;;;;;;;7.17;2.90;;;6.90;48.30;;;;;;5064149;28;20182;-75
2022/01/22 10:51:01;;;;;;;5.57;2.60;;;7.00;48.90;;;;;;5078620;28;20192;-75
2022/01/22 10:53:43;;;;;;;6.03;2.33;;;7.10;49.20;;;;;;5080230;28;20194;-75
2022/01/22 10:56:14;;;;;;;4.80;2.20;;;7.20;48.50;;;;;;5078369;28;20186;-76
2022/01/22 10:58:56;;;;;;;4.93;2.43;;;7.20;47.60;;;;;;5080315;28;21177;-74
2022/01/22 11:01:27;;;;;;;5.33;2.53;;;7.30;46.80;;;;;;5072972;28;20216;-75
2022/01/22 11:04:08;;;;;;;6.23;2.77;;;7.40;47.40;;;;;;5081082;28;20190;-75
2022/01/22 11:06:37;;;;;;;7.10;3.00;;;7.40;47.30;;;;;;5079365;28;20778;-74
2022/01/22 11:09:08;;;;;;;6.20;2.57;;;7.50;47.80;;;;;;5074665;28;20200;-75
2022/01/22 11:11:39;;;;;;;4.30;2.13;;;7.60;47.70;;;;;;5081870;28;20179;-74
2022/01/22 11:14:09;;;;;;;4.50;2.20;;;7.70;46.80;;;;;;5082333;28;20195;-74
2022/01/22 11:16:39;;;;;;;3.53;1.90;;;7.70;45.80;;;;;;5077800;28;20197;-74
2022/01/22 11:19:17;;;;;;;5.27;2.20;;;7.80;45.10;;;;;;5066364;28;20186;-75
2022/01/22 11:21:48;;;;;;;5.27;2.30;;;7.80;45.50;;;;;;5080179;28;20193;-76
2022/01/22 11:24:20;;;;;;;4.97;2.27;;;7.90;45.00;;;;;;5080803;28;20201;-75
2022/01/22 11:26:51;;;;;;;4.10;1.50;;;8.00;45.60;;;;;;5078994;28;20576;-76
2022/01/22 11:29:23;;;;;;;3.10;1.50;;;8.00;43.50;;;;;;5081437;28;20782;-74
2022/01/22 11:31:54;;;;;;;3.20;1.30;;;8.00;42.30;;;;;;5079571;28;20284;-75
2022/01/22 11:34:27;;;;;;;3.23;1.40;;;8.00;42.30;;;;;;5078350;28;20195;-76
2022/01/22 11:37:02;;;;;;;5.03;1.40;;;8.00;42.10;;;;;;5077777;28;20230;-77
2022/01/22 11:39:32;;;;;;;3.13;1.30;;;8.00;41.40;;;;;;5076345;28;20201;-76
2022/01/22 11:42:01;;;;;;;3.20;1.60;;;8.10;40.10;;;;;;5077642;28;20227;-75
2022/01/22 11:44:39;;;;;;;3.10;1.47;;;8.10;40.10;;;;;;5064871;28;20223;-76
2022/01/22 11:47:13;;;;;;;2.40;1.20;;;8.10;40.10;;;;;;5070752;28;20192;-76
2022/01/22 11:50:06;;;;;;;2.10;1.30;;;8.20;39.20;;;;;;5079484;28;20193;-75
2022/01/22 11:52:37;;;;;;;4.10;1.40;;;8.20;39.90;;;;;;5079604;28;20216;-75
2022/01/22 11:55:11;;;;;;;2.60;1.30;;;8.20;39.50;;;;;;5079308;28;20277;-74
2022/01/22 11:57:40;;;;;;;3.73;1.47;;;8.20;39.20;;;;;;5073555;28;20619;-76
2022/01/22 12:00:24;;;;;;;5.40;1.40;;;8.20;39.50;;;;;;5077290;28;20188;-76
2022/01/22 12:03:19;;;;;;;2.77;1.40;;;8.30;40.00;;;;;;5077702;28;20193;-73
2022/01/22 12:06:11;;;;;;;3.83;1.20;;;8.40;39.30;;;;;;5076322;28;20204;-73
2022/01/22 12:09:04;;;;;;;3.57;1.63;;;8.40;37.80;;;;;;5077412;28;20201;-75
2022/01/22 12:14:54;;;;;;;3.53;1.30;;;8.40;38.30;;;;;;5082098;28;20202;-76
2022/01/22 12:17:59;;;;;;;3.60;1.30;;;8.50;38.30;;;;;;5086156;28;20193;-76
2022/01/22 12:23:50;;;;;;;3.70;1.33;;;8.60;39.20;;;;;;5087000;28;20193;-76
2022/01/22 12:26:49;;;;;;;2.40;1.40;;;8.60;38.40;;;;;;5084462;28;20226;-75
2022/01/22 12:29:32;;;;;;;2.23;1.40;;;8.60;37.90;;;;;;5086004;28;20184;-75
2022/01/22 12:32:10;;;;;;;3.00;1.27;;;8.70;38.60;;;;;;5084955;28;20268;-76
2022/01/22 12:35:05;;;;;;;3.90;2.23;;;8.70;37.80;;;;;;5081398;28;20200;-76
2022/01/22 12:37:38;;;;;;;14.43;4.80;;;8.80;37.90;;;;;;5079348;28;20195;-76
2022/01/22 12:40:09;;;;;;;3.93;2.20;;;8.80;37.40;;;;;;5085931;28;20177;-75
2022/01/22 12:43:04;;;;;;;3.43;1.53;;;8.90;37.30;;;;;;5085072;28;20189;-76
2022/01/22 12:45:44;;;;;;;2.13;1.50;;;8.90;37.50;;;;;;5085164;28;20199;-75
2022/01/22 12:48:14;;;;;;;2.60;1.57;;;9.00;36.80;;;;;;5085111;28;20254;-76
2022/01/22 12:50:44;;;;;;;2.23;1.37;;;9.00;36.90;;;;;;5085446;28;20288;-76
2022/01/22 12:53:15;;;;;;;4.07;1.80;;;9.10;37.20;;;;;;5079642;28;20190;-73
2022/01/22 12:58:41;;;;;;;2.53;1.40;;;9.10;36.70;;;;;;5084839;28;20210;-76
2022/01/22 13:01:16;;;;;;;4.93;1.87;;;9.20;37.10;;;;;;5085930;28;20178;-73
2022/01/22 13:03:47;;;;;;;7.70;2.73;;;9.30;37.50;;;;;;5085047;28;20185;-73
2022/01/22 13:06:16;;;;;;;2.97;1.60;;;9.30;37.30;;;;;;5082558;28;20728;-75
2022/01/22 13:08:44;;;;;;;3.03;1.43;;;9.40;37.50;;;;;;5084259;28;20192;-74
2022/01/22 13:11:17;;;;;;;6.17;2.80;;;9.50;37.90;;;;;;5076609;28;20178;-74
2022/01/22 13:13:51;;;;;;;3.37;2.10;;;9.40;37.70;;;;;;5076626;28;20662;-74
2022/01/22 13:16:19;;;;;;;4.87;1.80;;;9.40;37.60;;;;;;5073290;28;20186;-76
2022/01/22 13:18:52;;;;;;;6.20;2.70;;;9.40;37.10;;;;;;5082222;28;20214;-75
2022/01/22 13:21:21;;;;;;;5.47;1.90;;;9.30;37.50;;;;;;5080973;28;20270;-75
2022/01/22 13:24:03;;;;;;;4.53;1.90;;;9.20;36.80;;;;;;5080387;28;20197;-75
2022/01/22 13:26:50;;;;;;;5.63;2.67;;;9.10;37.00;;;;;;5072182;28;20204;-74
2022/01/22 13:29:23;;;;;;;6.30;2.20;;;9.00;36.90;;;;;;5078065;28;20193;-75
2022/01/22 13:32:11;;;;;;;6.85;2.38;;;8.90;36.90;;;;;;5076130;28;20509;-75
2022/01/22 13:35:02;;;;;;;5.87;2.47;;;8.80;37.60;;;;;;5074237;28;20190;-75
2022/01/22 13:40:37;;;;;;;7.70;2.93;;;8.60;37.90;;;;;;5078474;28;20728;-74
2022/01/22 13:48:57;;;;;;;6.77;3.47;;;13.00;35.80;;;;;;5075370;28;20631;-74
2022/01/22 13:51:27;;;;;;;6.17;2.47;;;14.20;33.50;;;;;;5083245;28;20189;-76
2022/01/22 13:53:57;;;;;;;5.43;2.50;;;13.70;33.30;;;;;;5083000;28;20201;-74
2022/01/22 13:56:46;;;;;;;5.13;2.47;;;12.80;34.00;;;;;;5083301;28;20224;-72
2022/01/22 13:59:15;;;;;;;4.70;2.07;;;12.10;34.70;;;;;;5078415;28;20218;-72
2022/01/22 14:02:05;;;;;;;6.53;2.30;;;13.00;33.80;;;;;;5083787;28;20190;-73
2022/01/22 14:04:47;;;;;;;4.50;2.10;;;13.40;32.60;;;;;;5083278;28;20224;-73
2022/01/22 14:07:24;;;;;;;4.87;2.47;;;13.30;32.40;;;;;;5084557;28;20182;-72
2022/01/22 14:10:02;;;;;;;4.73;2.67;;;12.50;32.60;;;;;;5082776;28;20193;-72
2022/01/22 14:12:36;;;;;;;5.30;2.50;;;11.80;33.10;;;;;;5082890;28;20185;-72
2022/01/22 14:15:09;;;;;;;8.17;2.67;;;11.40;33.50;;;;;;5081849;28;20194;-73
2022/01/22 14:17:57;;;;;;;5.22;2.00;;;11.10;33.90;;;;;;5065753;28;20408;-74
2022/01/22 14:20:27;;;;;;;5.63;2.47;;;10.70;34.60;;;;;;5084631;28;20198;-73
2022/01/22 14:23:03;;;;;;;7.10;2.50;;;10.40;35.30;;;;;;5084086;28;20204;-72
2022/01/22 14:25:33;;;;;;;6.17;2.20;;;10.10;35.00;;;;;;5081672;28;20213;-73
2022/01/22 14:28:08;;;;;;;6.27;2.80;;;9.80;35.40;;;;;;5071022;28;20679;-74
2022/01/22 14:30:44;;;;;;;7.07;2.70;;;9.60;35.70;;;;;;5082188;28;20230;-73
2022/01/22 14:33:16;;;;;;;5.10;2.33;;;9.40;36.00;;;;;;5079619;28;20279;-73